createdAt,value
2023-04-20T00:00:22.546Z,6.40
2023-04-20T00:02:49.311Z,6.40
2023-04-20T00:05:16.203Z,6.40
2023-04-20T00:07:42.926Z,6.30
2023-04-20T00:10:09.514Z,6.30
2023-04-20T00:12:36.114Z,6.30
2023-04-20T00:15:02.592Z,6.20
2023-04-20T00:17:29.143Z,6.30
2023-04-20T00:19:55.614Z,6.30
2023-04-20T00:22:22.281Z,6.30
2023-04-20T00:24:48.843Z,6.30
2023-04-20T00:27:15.423Z,6.30
2023-04-20T00:29:41.891Z,6.30
2023-04-20T00:32:08.382Z,6.40
2023-04-20T00:34:34.955Z,6.40
2023-04-20T00:37:01.500Z,6.40
2023-04-20T00:39:28.147Z,6.40
2023-04-20T00:41:54.870Z,6.40
2023-04-20T00:44:21.379Z,6.40
2023-04-20T00:46:47.967Z,6.40
2023-04-20T00:49:14.529Z,6.40
2023-04-20T00:51:41.102Z,6.40
2023-04-20T00:54:07.584Z,6.30
2023-04-20T00:56:34.182Z,6.30
2023-04-20T00:59:00.722Z,6.30
2023-04-20T01:01:27.383Z,6.30
2023-04-20T01:03:54.156Z,6.30
2023-04-20T01:06:21.112Z,6.40
2023-04-20T01:08:47.596Z,6.40
2023-04-20T01:11:14.200Z,6.40
2023-04-20T01:13:40.715Z,6.40
2023-04-20T01:16:07.802Z,6.40
2023-04-20T01:18:35.248Z,6.40
2023-04-20T01:21:01.762Z,6.30
2023-04-20T01:23:28.256Z,6.30
2023-04-20T01:25:54.791Z,6.30
2023-04-20T01:28:21.260Z,6.20
2023-04-20T01:30:47.750Z,6.20
2023-04-20T01:33:14.222Z,6.20
2023-04-20T01:35:40.720Z,6.10
2023-04-20T01:38:07.231Z,6.10
2023-04-20T01:40:33.751Z,6.10
2023-04-20T01:43:00.704Z,6.10
2023-04-20T01:45:28.328Z,6.10
2023-04-20T01:47:54.878Z,6.00
2023-04-20T01:50:22.693Z,6.00
2023-04-20T01:52:49.194Z,6.00
2023-04-20T01:55:15.821Z,6.10
2023-04-20T01:57:44.503Z,6.10
2023-04-20T02:00:11.011Z,6.20
2023-04-20T02:02:37.879Z,6.20
2023-04-20T02:05:04.583Z,6.20
2023-04-20T02:07:31.141Z,6.20
2023-04-20T02:09:57.608Z,6.10
2023-04-20T02:12:24.121Z,6.10
2023-04-20T02:14:50.724Z,6.10
2023-04-20T02:17:18.235Z,6.00
2023-04-20T02:19:44.813Z,5.90
2023-04-20T02:22:11.325Z,5.90
2023-04-20T02:24:37.792Z,5.90
2023-04-20T02:27:04.339Z,5.90
2023-04-20T02:29:30.874Z,5.80
2023-04-20T02:31:57.341Z,5.80
2023-04-20T02:34:23.835Z,5.90
2023-04-20T02:36:50.381Z,5.90
2023-04-20T02:39:17.149Z,5.90
2023-04-20T02:41:43.946Z,5.90
2023-04-20T02:44:10.523Z,5.90
2023-04-20T02:46:37.066Z,5.90
2023-04-20T02:49:03.581Z,5.90
2023-04-20T02:51:30.141Z,5.90
2023-04-20T02:53:56.677Z,5.90
2023-04-20T02:56:23.192Z,5.90
2023-04-20T02:58:51.968Z,5.90
2023-04-20T03:01:18.543Z,5.90
2023-04-20T03:03:45.292Z,5.80
2023-04-20T03:06:11.967Z,5.80
2023-04-20T03:08:38.438Z,5.80
2023-04-20T03:11:04.918Z,5.70
2023-04-20T03:13:31.417Z,5.70
2023-04-20T03:15:57.980Z,5.70
2023-04-20T03:18:24.498Z,5.70
2023-04-20T03:20:50.996Z,5.60
2023-04-20T03:23:17.459Z,5.50
2023-04-20T03:25:44.709Z,5.50
2023-04-20T03:28:11.226Z,5.40
2023-04-20T03:30:37.730Z,5.40
2023-04-20T03:33:04.258Z,5.40
2023-04-20T03:35:30.810Z,5.30
2023-04-20T03:37:57.304Z,5.20
2023-04-20T03:40:23.841Z,5.20
2023-04-20T03:42:50.578Z,5.20
2023-04-20T03:45:17.090Z,5.10
2023-04-20T03:47:43.633Z,5.00
2023-04-20T03:50:10.187Z,5.00
2023-04-20T03:52:36.737Z,5.00
2023-04-20T03:55:03.289Z,5.00
2023-04-20T03:57:29.814Z,4.90
2023-04-20T03:59:56.330Z,4.80
2023-04-20T04:02:23.621Z,4.80
2023-04-20T04:04:50.546Z,4.80
2023-04-20T04:07:17.217Z,4.80
2023-04-20T04:09:43.716Z,4.80
2023-04-20T04:12:10.216Z,4.90
2023-04-20T04:14:36.701Z,4.90
2023-04-20T04:17:03.326Z,5.00
2023-04-20T04:19:29.835Z,5.00
2023-04-20T04:21:56.317Z,5.00
2023-04-20T04:24:22.931Z,5.00
2023-04-20T04:26:49.753Z,5.00
2023-04-20T04:29:16.542Z,5.00
2023-04-20T04:31:43.270Z,5.00
2023-04-20T04:34:10.621Z,5.00
2023-04-20T04:36:37.181Z,5.00
2023-04-20T04:39:03.691Z,4.90
2023-04-20T04:41:30.365Z,4.90
2023-04-20T04:43:59.272Z,4.90
2023-04-20T04:46:26.002Z,4.90
2023-04-20T04:48:52.595Z,4.90
2023-04-20T04:51:19.101Z,4.90
2023-04-20T04:53:47.381Z,4.90
2023-04-20T04:56:13.902Z,4.90
2023-04-20T04:58:40.492Z,4.90
2023-04-20T05:01:06.970Z,4.90
2023-04-20T05:03:33.705Z,4.90
2023-04-20T05:06:00.632Z,4.90
2023-04-20T05:08:27.123Z,4.90
2023-04-20T05:10:53.614Z,5.00
2023-04-20T05:13:20.287Z,4.90
2023-04-20T05:15:46.794Z,4.90
2023-04-20T05:18:13.572Z,4.80
2023-04-20T05:20:40.108Z,4.70
2023-04-20T05:23:06.613Z,4.60
2023-04-20T05:25:33.148Z,4.60
2023-04-20T05:27:59.625Z,4.60
2023-04-20T05:30:26.196Z,4.60
2023-04-20T05:32:52.896Z,4.60
2023-04-20T05:35:19.598Z,4.60
2023-04-20T05:37:47.494Z,4.60
2023-04-20T05:40:15.090Z,4.60
2023-04-20T05:42:41.620Z,4.60
2023-04-20T05:45:08.111Z,4.60
2023-04-20T05:47:34.764Z,4.60
2023-04-20T05:50:01.347Z,4.60
2023-04-20T05:52:27.829Z,4.60
2023-04-20T05:54:54.338Z,4.60
2023-04-20T05:57:21.784Z,4.60
2023-04-20T05:59:48.264Z,4.60
2023-04-20T06:02:14.869Z,4.60
2023-04-20T06:04:42.523Z,4.70
2023-04-20T06:07:09.488Z,4.70
2023-04-20T06:09:35.979Z,4.70
2023-04-20T06:12:02.625Z,4.80
2023-04-20T06:14:29.167Z,4.80
2023-04-20T06:16:55.699Z,4.80
2023-04-20T06:19:22.501Z,4.90
2023-04-20T06:21:49.160Z,4.90
2023-04-20T06:24:15.655Z,5.00
2023-04-20T06:26:42.119Z,4.90
2023-04-20T06:29:08.692Z,4.90
2023-04-20T06:31:35.287Z,4.90
2023-04-20T06:34:01.817Z,5.00
2023-04-20T06:36:28.597Z,5.00
2023-04-20T06:38:55.174Z,5.00
2023-04-20T06:41:21.650Z,5.00
2023-04-20T06:43:48.164Z,5.00
2023-04-20T06:46:14.677Z,5.00
2023-04-20T06:48:41.215Z,5.00
2023-04-20T06:51:07.722Z,5.00
2023-04-20T06:53:34.272Z,5.00
2023-04-20T06:56:00.905Z,5.00
2023-04-20T06:58:27.428Z,4.90
2023-04-20T07:00:54.052Z,4.90
2023-04-20T07:03:20.904Z,4.90
2023-04-20T07:05:47.593Z,4.90
2023-04-20T07:08:15.782Z,4.80
2023-04-20T07:10:42.545Z,4.80
2023-04-20T07:13:09.058Z,4.80
2023-04-20T07:15:35.649Z,4.80
2023-04-20T07:18:02.301Z,4.70
2023-04-20T07:20:28.975Z,4.70
2023-04-20T07:22:55.536Z,4.70
2023-04-20T07:25:23.111Z,4.60
2023-04-20T07:27:49.633Z,4.60
2023-04-20T07:30:16.173Z,4.50
2023-04-20T07:32:42.785Z,4.50
2023-04-20T07:35:09.303Z,4.50
2023-04-20T07:37:36.108Z,4.60
2023-04-20T07:40:02.612Z,4.50
2023-04-20T07:42:29.223Z,4.50
2023-04-20T07:44:56.281Z,4.60
2023-04-20T07:47:22.987Z,4.60
2023-04-20T07:49:49.772Z,4.70
2023-04-20T07:52:17.269Z,4.80
2023-04-20T07:54:44.004Z,4.90
2023-04-20T07:57:11.102Z,5.00
2023-04-20T07:59:37.690Z,5.10
2023-04-20T08:02:04.322Z,5.20
2023-04-20T08:04:31.374Z,5.30
2023-04-20T08:06:58.064Z,5.40
2023-04-20T08:09:26.057Z,5.40
2023-04-20T08:11:52.581Z,5.60
2023-04-20T08:14:19.285Z,5.70
2023-04-20T08:16:46.234Z,5.80
2023-04-20T08:21:44.231Z,6.00
2023-04-20T08:24:10.793Z,6.10
2023-04-20T08:26:37.322Z,6.10
2023-04-20T08:29:03.820Z,6.20
2023-04-20T08:31:30.502Z,6.20
2023-04-20T08:33:57.065Z,6.00
2023-04-20T08:36:24.022Z,6.00
2023-04-20T08:38:51.152Z,6.00
2023-04-20T08:41:17.666Z,5.90
2023-04-20T08:43:44.151Z,5.90
2023-04-20T08:46:10.733Z,5.90
2023-04-20T08:48:37.270Z,6.00
2023-04-20T08:51:03.863Z,6.10
2023-04-20T08:53:30.434Z,6.10
2023-04-20T08:55:57.416Z,6.10
2023-04-20T08:58:23.917Z,6.10
2023-04-20T09:00:50.451Z,6.20
2023-04-20T09:03:17.294Z,6.20
2023-04-20T09:05:44.056Z,6.20
2023-04-20T09:08:10.556Z,6.20
2023-04-20T09:10:37.217Z,6.30
2023-04-20T09:13:03.749Z,6.40
2023-04-20T09:15:30.405Z,6.50
2023-04-20T09:17:56.961Z,6.60
2023-04-20T09:20:23.518Z,6.60
2023-04-20T09:22:50.763Z,6.70
2023-04-20T09:25:17.337Z,6.80
2023-04-20T09:27:43.849Z,6.80
2023-04-20T09:30:10.368Z,6.90
2023-04-20T09:32:36.864Z,7.00
2023-04-20T09:35:03.374Z,7.00
2023-04-20T09:37:30.524Z,7.00
2023-04-20T09:39:57.029Z,7.00
2023-04-20T09:42:23.598Z,6.90
2023-04-20T09:44:50.182Z,6.90
2023-04-20T09:47:16.716Z,6.90
2023-04-20T09:49:43.343Z,6.90
2023-04-20T09:52:09.882Z,7.00
2023-04-20T09:54:36.396Z,7.10
2023-04-20T09:57:04.144Z,7.20
2023-04-20T09:59:30.652Z,7.30
2023-04-20T10:01:57.166Z,7.30
2023-04-20T10:04:24.364Z,7.40
2023-04-20T10:06:51.118Z,7.50
2023-04-20T10:09:18.227Z,7.50
2023-04-20T10:11:53.309Z,7.60
2023-04-20T10:14:21.175Z,7.60
2023-04-20T10:16:47.904Z,7.70
2023-04-20T10:19:14.521Z,7.80
2023-04-20T10:21:41.020Z,7.90
2023-04-20T10:24:07.513Z,8.00
2023-04-20T10:26:34.006Z,8.00
2023-04-20T10:29:00.526Z,8.10
2023-04-20T10:31:27.110Z,8.10
2023-04-20T10:33:53.680Z,8.30
2023-04-20T10:36:20.187Z,8.30
2023-04-20T10:38:46.667Z,8.30
2023-04-20T10:41:13.191Z,8.40
2023-04-20T10:43:43.022Z,8.60
2023-04-20T10:46:09.543Z,8.70
2023-04-20T10:48:36.054Z,8.60
2023-04-20T10:51:02.537Z,8.50
2023-04-20T10:53:29.076Z,8.50
2023-04-20T10:55:55.616Z,8.60
2023-04-20T10:58:22.341Z,8.50
2023-04-20T11:00:48.826Z,8.40
2023-04-20T11:03:15.372Z,8.40
2023-04-20T11:05:42.054Z,8.40
2023-04-20T11:08:08.553Z,8.30
2023-04-20T11:10:35.109Z,8.10
2023-04-20T11:13:01.709Z,7.90
2023-04-20T11:15:28.257Z,8.00
2023-04-20T11:17:54.794Z,8.30
2023-04-20T11:20:21.337Z,8.40
2023-04-20T11:22:47.806Z,8.30
2023-04-20T11:25:14.362Z,8.50
2023-04-20T11:27:41.124Z,8.60
2023-04-20T11:30:08.303Z,8.80
2023-04-20T11:32:35.003Z,9.20
2023-04-20T11:35:06.698Z,9.40
2023-04-20T11:37:33.798Z,9.60
2023-04-20T11:40:00.417Z,9.80
2023-04-20T11:42:27.597Z,9.80
2023-04-20T11:44:54.168Z,9.80
2023-04-20T11:47:20.707Z,9.60
2023-04-20T11:49:47.245Z,9.30
2023-04-20T11:52:13.705Z,9.10
2023-04-20T11:54:40.314Z,9.00
2023-04-20T11:57:07.461Z,8.90
2023-04-20T11:59:33.995Z,8.90
2023-04-20T12:02:04.547Z,8.90
2023-04-20T12:07:02.191Z,8.80
2023-04-20T12:09:30.314Z,8.80
2023-04-20T12:11:57.619Z,8.80
2023-04-20T12:14:24.220Z,8.80
2023-04-20T12:16:50.895Z,8.80
2023-04-20T12:19:17.690Z,9.10
2023-04-20T12:21:44.481Z,9.40
2023-04-20T12:24:11.016Z,9.60
2023-04-20T12:26:38.798Z,9.70
2023-04-20T12:29:05.583Z,9.80
2023-04-20T12:31:32.129Z,10.00
2023-04-20T12:33:58.824Z,10.00
2023-04-20T12:36:25.839Z,9.90
2023-04-20T12:38:52.466Z,9.80
2023-04-20T12:41:19.128Z,9.80
2023-04-20T12:43:45.629Z,9.90
2023-04-20T12:46:12.259Z,9.90
2023-04-20T12:48:38.769Z,10.00
2023-04-20T12:51:05.325Z,10.00
2023-04-20T12:53:31.855Z,9.90
2023-04-20T12:56:01.434Z,9.80
2023-04-20T12:58:28.396Z,9.70
2023-04-20T13:00:55.038Z,9.80
2023-04-20T13:03:21.676Z,10.00
2023-04-20T13:05:48.383Z,10.00
2023-04-20T13:08:14.878Z,10.10
2023-04-20T13:10:44.546Z,10.20
2023-04-20T13:13:11.179Z,10.50
2023-04-20T13:15:38.959Z,10.80
2023-04-20T13:18:06.317Z,11.00
2023-04-20T13:20:32.889Z,11.10
2023-04-20T13:22:59.622Z,11.20
2023-04-20T13:25:26.244Z,11.10
2023-04-20T13:27:52.838Z,11.00
2023-04-20T13:30:19.337Z,10.90
2023-04-20T13:32:45.867Z,10.80
2023-04-20T13:35:14.514Z,10.80
2023-04-20T13:37:41.024Z,10.60
2023-04-20T13:40:07.537Z,10.50
2023-04-20T13:42:34.139Z,10.40
2023-04-20T13:45:00.812Z,10.40
2023-04-20T13:47:27.381Z,10.40
2023-04-20T13:49:53.937Z,10.30
2023-04-20T13:52:20.476Z,10.20
2023-04-20T13:54:46.947Z,10.20
2023-04-20T13:57:13.459Z,10.10
2023-04-20T13:59:40.323Z,10.00
2023-04-20T14:02:06.844Z,10.10
2023-04-20T14:04:33.414Z,10.10
2023-04-20T14:06:59.920Z,10.20
2023-04-20T14:09:28.203Z,10.10
2023-04-20T14:11:57.087Z,9.90
2023-04-20T14:14:23.775Z,9.80
2023-04-20T14:16:50.249Z,9.70
2023-04-20T14:19:16.763Z,9.70
2023-04-20T14:21:47.196Z,9.70
2023-04-20T14:24:13.737Z,9.70
2023-04-20T14:26:40.223Z,9.80
2023-04-20T14:29:06.777Z,9.90
2023-04-20T14:31:34.528Z,10.10
2023-04-20T14:34:01.088Z,10.20
2023-04-20T14:36:27.880Z,10.20
2023-04-20T14:38:55.416Z,10.20
2023-04-20T14:41:22.060Z,10.10
2023-04-20T14:43:48.628Z,10.10
2023-04-20T14:46:15.520Z,9.90
2023-04-20T14:48:42.080Z,9.90
2023-04-20T14:51:08.601Z,9.80
2023-04-20T14:53:35.155Z,9.70
2023-04-20T14:56:01.624Z,9.80
2023-04-20T14:58:28.120Z,9.90
2023-04-20T15:00:54.612Z,10.00
2023-04-20T15:03:21.297Z,10.20
2023-04-20T15:05:48.273Z,10.40
2023-04-20T15:08:14.877Z,10.50
2023-04-20T15:10:41.369Z,10.70
2023-04-20T15:13:07.998Z,10.90
2023-04-20T15:15:47.776Z,11.10
2023-04-20T15:18:15.761Z,11.20
2023-04-20T15:20:42.267Z,11.20
2023-04-20T15:23:08.795Z,11.20
2023-04-20T15:25:35.290Z,11.30
2023-04-20T15:28:01.745Z,11.30
2023-04-20T15:30:28.220Z,11.30
2023-04-20T15:32:54.725Z,11.30
2023-04-20T15:35:21.271Z,11.30
2023-04-20T15:37:47.768Z,11.20
2023-04-20T15:40:15.446Z,11.00
2023-04-20T15:42:41.948Z,10.90
2023-04-20T15:45:08.670Z,10.80
2023-04-20T15:47:35.285Z,10.60
2023-04-20T15:50:03.129Z,10.50
2023-04-20T15:52:29.647Z,10.50
2023-04-20T15:54:56.175Z,10.40
2023-04-20T15:57:22.675Z,10.30
2023-04-20T15:59:49.207Z,10.30
2023-04-20T16:02:19.507Z,10.20
2023-04-20T16:04:50.041Z,10.20
2023-04-20T16:07:17.556Z,10.10
2023-04-20T16:09:44.652Z,10.00
2023-04-20T16:12:12.027Z,9.80
2023-04-20T16:14:38.938Z,9.50
2023-04-20T16:17:06.251Z,9.40
2023-04-20T16:19:34.683Z,9.20
2023-04-20T16:22:02.218Z,9.20
2023-04-20T16:24:32.339Z,9.00
2023-04-20T16:27:04.242Z,8.90
2023-04-20T16:29:31.528Z,8.80
2023-04-20T16:32:01.064Z,8.70
2023-04-20T16:34:28.426Z,8.50
2023-04-20T16:36:55.317Z,8.40
2023-04-20T16:39:21.821Z,8.30
2023-04-20T16:41:48.284Z,8.20
2023-04-20T16:44:16.052Z,8.10
2023-04-20T16:46:42.825Z,8.00
2023-04-20T16:49:09.442Z,7.90
2023-04-20T16:51:35.962Z,7.90
2023-04-20T16:54:02.448Z,7.90
2023-04-20T16:56:28.927Z,7.80
2023-04-20T16:58:55.575Z,7.80
2023-04-20T17:01:22.512Z,7.90
2023-04-20T17:03:49.247Z,7.90
2023-04-20T17:06:15.993Z,7.80
2023-04-20T17:08:42.503Z,7.80
2023-04-20T17:11:08.960Z,7.70
2023-04-20T17:13:35.462Z,7.70
2023-04-20T17:16:02.033Z,7.70
2023-04-20T17:18:28.586Z,7.70
2023-04-20T17:20:57.064Z,7.70
2023-04-20T17:23:23.580Z,7.60
2023-04-20T17:25:51.243Z,7.60
2023-04-20T17:28:17.774Z,7.70
2023-04-20T17:30:44.285Z,7.70
2023-04-20T17:33:12.210Z,7.60
2023-04-20T17:35:39.171Z,7.60
2023-04-20T17:38:05.703Z,7.50
2023-04-20T17:40:32.267Z,7.50
2023-04-20T17:42:58.750Z,7.50
2023-04-20T17:45:25.270Z,7.50
2023-04-20T17:47:53.537Z,7.50
2023-04-20T17:50:20.299Z,7.50
2023-04-20T17:52:46.829Z,7.50
2023-04-20T17:55:13.371Z,7.60
2023-04-20T17:57:39.923Z,7.60
2023-04-20T18:00:07.505Z,7.60
2023-04-20T18:02:34.078Z,7.60
2023-04-20T18:05:00.986Z,7.50
2023-04-20T18:07:27.588Z,7.50
2023-04-20T18:09:54.353Z,7.50
2023-04-20T18:12:21.411Z,7.50
2023-04-20T18:14:48.113Z,7.50
2023-04-20T18:17:14.647Z,7.50
2023-04-20T18:19:41.208Z,7.50
2023-04-20T18:22:08.748Z,7.50
2023-04-20T18:24:35.294Z,7.50
2023-04-20T18:27:01.926Z,7.50
2023-04-20T18:29:29.867Z,7.50
2023-04-20T18:31:59.105Z,7.50
2023-04-20T18:34:29.731Z,7.50
2023-04-20T18:36:56.542Z,7.50
2023-04-20T18:39:23.046Z,7.50
2023-04-20T18:41:49.559Z,7.50
2023-04-20T18:44:16.171Z,7.50
2023-04-20T18:46:42.821Z,7.40
2023-04-20T18:49:09.334Z,7.50
2023-04-20T18:51:35.873Z,7.50
2023-04-20T18:54:02.732Z,7.40
2023-04-20T18:56:29.328Z,7.40
2023-04-20T18:58:57.868Z,7.40
2023-04-20T19:01:24.690Z,7.40
2023-04-20T19:03:51.663Z,7.40
2023-04-20T19:06:18.338Z,7.40
2023-04-20T19:08:45.133Z,7.40
2023-04-20T19:11:11.660Z,7.40
2023-04-20T19:13:44.262Z,7.40
2023-04-20T19:16:11.350Z,7.40
2023-04-20T19:18:38.091Z,7.40
2023-04-20T19:21:05.459Z,7.40
2023-04-20T19:23:32.028Z,7.40
2023-04-20T19:25:58.604Z,7.40
2023-04-20T19:28:25.382Z,7.40
2023-04-20T19:30:52.169Z,7.40
2023-04-20T19:33:18.824Z,7.40
2023-04-20T19:35:50.424Z,7.30
2023-04-20T19:38:16.929Z,7.30
2023-04-20T19:40:43.641Z,7.30
2023-04-20T19:43:10.251Z,7.40
2023-04-20T19:45:36.795Z,7.30
2023-04-20T19:48:03.426Z,7.30
2023-04-20T19:50:30.014Z,7.30
2023-04-20T19:52:57.617Z,7.30
2023-04-20T19:55:24.253Z,7.30
2023-04-20T19:57:51.178Z,7.30
2023-04-20T20:00:17.956Z,7.30
2023-04-20T20:02:44.756Z,7.30
2023-04-20T20:05:11.402Z,7.30
2023-04-20T20:07:38.090Z,7.30
2023-04-20T20:10:04.633Z,7.30
2023-04-20T20:12:31.149Z,7.30
2023-04-20T20:14:57.738Z,7.40
2023-04-20T20:17:24.273Z,7.30
2023-04-20T20:19:53.641Z,7.30
2023-04-20T20:22:20.998Z,7.40
2023-04-20T20:24:47.856Z,7.30
2023-04-20T20:27:14.381Z,7.30
2023-04-20T20:29:41.101Z,7.30
2023-04-20T20:32:07.570Z,7.30
2023-04-20T20:34:34.078Z,7.30
2023-04-20T20:37:04.165Z,7.30
2023-04-20T20:39:31.251Z,7.30
2023-04-20T20:41:57.749Z,7.20
2023-04-20T20:44:25.198Z,7.20
2023-04-20T20:46:51.732Z,7.20
2023-04-20T20:49:18.552Z,7.20
2023-04-20T20:51:45.428Z,7.20
2023-04-20T20:54:11.980Z,7.20
2023-04-20T20:56:38.569Z,7.20
2023-04-20T20:59:05.138Z,7.10
2023-04-20T21:01:31.894Z,7.10
2023-04-20T21:03:58.684Z,7.10
2023-04-20T21:06:25.362Z,7.00
2023-04-20T21:08:51.926Z,7.00
2023-04-20T21:11:18.413Z,7.10
2023-04-20T21:13:44.982Z,7.10
2023-04-20T21:16:11.484Z,7.10
2023-04-20T21:18:38.112Z,7.10
2023-04-20T21:21:04.627Z,7.10
2023-04-20T21:23:31.153Z,7.10
2023-04-20T21:25:57.603Z,7.20
2023-04-20T21:28:24.095Z,7.20
2023-04-20T21:30:50.715Z,7.20
2023-04-20T21:33:17.234Z,7.20
2023-04-20T21:35:43.850Z,7.20
2023-04-20T21:38:10.531Z,7.20
2023-04-20T21:40:37.014Z,7.20
2023-04-20T21:43:03.635Z,7.30
2023-04-20T21:45:30.122Z,7.30
2023-04-20T21:47:56.634Z,7.30
2023-04-20T21:50:36.774Z,7.30
2023-04-20T21:53:03.285Z,7.30
2023-04-20T21:55:29.789Z,7.30
2023-04-20T21:57:56.317Z,7.30
2023-04-20T22:00:23.156Z,7.40
2023-04-20T22:02:50.461Z,7.40
2023-04-20T22:05:17.254Z,7.40
2023-04-20T22:07:45.031Z,7.40
2023-04-20T22:10:11.523Z,7.30
2023-04-20T22:12:40.311Z,7.30
2023-04-20T22:15:06.868Z,7.30
2023-04-20T22:17:33.512Z,7.30
2023-04-20T22:20:00.047Z,7.30
2023-04-20T22:22:26.516Z,7.30
2023-04-20T22:24:53.002Z,7.30
2023-04-20T22:27:19.480Z,7.30
2023-04-20T22:29:46.015Z,7.30
2023-04-20T22:32:12.476Z,7.20
2023-04-20T22:34:38.971Z,7.10
2023-04-20T22:37:06.256Z,7.10
2023-04-20T22:39:32.769Z,7.00
2023-04-20T22:41:59.633Z,7.00
2023-04-20T22:44:26.164Z,7.00
2023-04-20T22:46:53.008Z,7.00
2023-04-20T22:49:19.702Z,7.00
2023-04-20T22:51:46.361Z,7.00
2023-04-20T22:54:12.894Z,7.00
2023-04-20T22:56:39.374Z,7.10
2023-04-20T22:59:05.932Z,7.10
2023-04-20T23:01:32.454Z,7.10
2023-04-20T23:03:59.203Z,7.10
2023-04-20T23:06:29.528Z,7.10
2023-04-20T23:08:59.025Z,7.10
2023-04-20T23:11:26.613Z,7.10
2023-04-20T23:13:53.200Z,7.10
2023-04-20T23:16:19.700Z,7.20
2023-04-20T23:18:46.256Z,7.20
2023-04-20T23:21:12.781Z,7.20
2023-04-20T23:23:39.272Z,7.10
2023-04-20T23:26:05.866Z,7.10
2023-04-20T23:28:32.374Z,7.10
2023-04-20T23:30:58.872Z,7.10
2023-04-20T23:33:25.369Z,7.10
2023-04-20T23:35:51.852Z,7.10
2023-04-20T23:38:18.433Z,7.20
2023-04-20T23:40:45.055Z,7.20
2023-04-20T23:43:11.657Z,7.20
2023-04-20T23:45:38.199Z,7.20
2023-04-20T23:48:04.782Z,7.20
2023-04-20T23:50:31.340Z,7.30
2023-04-20T23:52:57.827Z,7.20
2023-04-20T23:55:24.414Z,7.20
2023-04-20T23:57:52.647Z,7.20
